Time;durP1;ratioP1;P1;durP2;ratioP2;P2;SDS_P1;SDS_P2;PMS_P1;PMS_P2;Temp;Humidity;BMP_temperature;BMP_pressure;BME280_temperature;BME280_humidity;BME280_pressure;Samples;Min_cycle;Max_cycle;Signal;HPM_P1;HPM_P2
2021/07/27 00:01:07;;;;;;;;;;;;;;;18.55;87.78;101070.63;5068455;28;19925;-58
2021/07/27 00:03:34;;;;;;;;;;;;;;;18.62;87.38;101071.72;5053598;28;19921;-58
2021/07/27 00:06:01;;;;;;;;;;;;;;;18.58;87.63;101073.84;5068743;28;19943;-58
2021/07/27 00:08:37;;;;;;;;;;;;;;;18.61;87.46;101074.53;5053248;28;20383;-58
2021/07/27 00:11:08;;;;;;;;;;;;;;;18.63;87.29;101073.41;5065131;28;20614;-58
2021/07/27 00:13:35;;;;;;;;;;;;;;;18.63;87.57;101078.72;5051418;28;19974;-58
2021/07/27 00:16:02;;;;;;;;;;;;;;;18.63;87.27;101073.41;5068721;28;19966;-58
2021/07/27 00:18:30;;;;;;;;;;;;;;;18.69;86.98;101078.16;5053278;28;20326;-58
2021/07/27 00:20:57;;;;;;;;;;;;;;;18.60;87.30;101071.03;5068444;28;20351;-58
2021/07/27 00:23:24;;;;;;;;;;;;;;;18.55;87.40;101076.78;5068450;28;19920;-58
2021/07/27 00:25:51;;;;;;;;;;;;;;;18.52;87.82;101081.59;5052052;28;19921;-48
2021/07/27 00:28:17;;;;;;;;;;;;;;;18.45;88.23;101072.47;5050031;28;19921;-51
2021/07/27 00:30:44;;;;;;;;;;;;;;;18.48;87.92;101080.19;5050365;28;20680;-50
2021/07/27 00:33:11;;;;;;;;;;;;;;;18.48;88.18;101080.19;5067452;28;19920;-48
2021/07/27 00:35:38;;;;;;;;;;;;;;;18.45;88.02;101083.13;5052372;28;19928;-49
2021/07/27 00:38:17;;;;;;;;;;;;;;;18.38;88.67;101086.41;5065504;28;19970;-46
2021/07/27 00:40:44;;;;;;;;;;;;;;;18.29;89.01;101086.44;5034156;28;19942;-49
2021/07/27 00:43:11;;;;;;;;;;;;;;;18.36;88.77;101090.19;5051428;28;19925;-47
2021/07/27 00:45:38;;;;;;;;;;;;;;;18.38;88.67;101091.72;5052700;28;19959;-47
2021/07/27 00:48:05;;;;;;;;;;;;;;;18.37;88.62;101100.69;5052127;28;19921;-50
2021/07/27 00:50:31;;;;;;;;;;;;;;;18.42;88.22;101097.59;5068424;28;20341;-50
2021/07/27 00:53:03;;;;;;;;;;;;;;;18.42;88.00;101093.09;5068051;28;19921;-50
2021/07/27 00:55:30;;;;;;;;;;;;;;;18.39;88.05;101104.06;5052141;28;19983;-50
2021/07/27 00:57:57;;;;;;;;;;;;;;;18.37;87.87;101100.69;5052644;28;19928;-50
2021/07/27 01:00:24;;;;;;;;;;;;;;;18.33;88.01;101101.97;5067883;28;19925;-58
2021/07/27 01:02:51;;;;;;;;;;;;;;;18.34;88.34;101100.16;5051180;28;19924;-58
2021/07/27 01:05:18;;;;;;;;;;;;;;;18.32;87.93;101099.44;5065470;28;19928;-58
2021/07/27 01:07:44;;;;;;;;;;;;;;;18.35;87.92;101108.00;5051561;28;19920;-58
2021/07/27 01:10:12;;;;;;;;;;;;;;;18.36;87.86;101101.66;5052450;28;19924;-58
2021/07/27 01:12:40;;;;;;;;;;;;;;;18.40;87.55;101104.88;5067882;28;19924;-58
2021/07/27 01:15:07;;;;;;;;;;;;;;;18.41;87.60;101096.75;5067785;28;20360;-58
2021/07/27 01:17:34;;;;;;;;;;;;;;;18.41;87.39;101098.59;5052400;28;19931;-58
2021/07/27 01:39:22;;;;;;;;;;;;;;;18.45;86.68;101080.47;5052510;28;19928;-59
2021/07/27 01:42:34;;;;;;;;;;;;;;;18.33;87.04;101080.66;5064765;28;19925;-59
2021/07/27 01:44:45;;;;;;;;;;;;;;;18.35;87.11;101073.38;5059407;28;19920;-59
2021/07/27 01:47:30;;;;;;;;;;;;;;;18.38;87.25;101070.41;5067137;28;19971;-58
2021/07/27 01:49:57;;;;;;;;;;;;;;;18.38;86.74;101064.25;5050874;28;20489;-59
2021/07/27 01:52:25;;;;;;;;;;;;;;;18.41;86.94;101069.28;5051817;28;20024;-58
2021/07/27 01:54:54;;;;;;;;;;;;;;;18.30;86.76;101064.16;5048832;28;19925;-58
2021/07/27 01:57:20;;;;;;;;;;;;;;;18.29;87.03;101055.31;5065621;28;19921;-59
2021/07/27 01:59:50;;;;;;;;;;;;;;;18.29;86.91;101050.00;5052417;28;20303;-59
2021/07/27 02:02:17;;;;;;;;;;;;;;;18.23;87.00;101048.75;5051142;28;19951;-59
2021/07/27 02:04:44;;;;;;;;;;;;;;;18.23;86.70;101047.94;5069867;28;19924;-59
2021/07/27 02:07:10;;;;;;;;;;;;;;;18.26;86.89;101052.13;5055761;28;19920;-59
2021/07/27 02:09:40;;;;;;;;;;;;;;;18.29;86.71;101044.66;5055989;28;20031;-59
2021/07/27 02:12:15;;;;;;;;;;;;;;;18.31;86.37;101055.16;5054035;28;19943;-59
2021/07/27 02:17:34;;;;;;;;;;;;;;;18.32;86.41;101044.38;5068555;28;19920;-59
2021/07/27 02:20:02;;;;;;;;;;;;;;;18.30;86.39;101045.53;5055578;28;19936;-59
2021/07/27 02:22:32;;;;;;;;;;;;;;;18.30;86.50;101042.84;5070526;28;20391;-59
2021/07/27 02:24:58;;;;;;;;;;;;;;;18.27;86.97;101045.78;5053116;28;19925;-58
2021/07/27 02:27:25;;;;;;;;;;;;;;;18.17;87.14;101046.66;5052154;28;19920;-59
2021/07/27 02:29:52;;;;;;;;;;;;;;;18.21;87.34;101047.22;5069516;28;20395;-59
2021/07/27 02:32:19;;;;;;;;;;;;;;;18.23;87.18;101055.91;5055146;28;19928;-59
2021/07/27 02:34:46;;;;;;;;;;;;;;;18.05;87.83;101059.31;5055040;28;19921;-59
2021/07/27 02:37:14;;;;;;;;;;;;;;;18.06;88.17;101055.69;5053986;28;20290;-58
2021/07/27 02:39:41;;;;;;;;;;;;;;;18.03;88.03;101071.91;5053461;28;20390;-58
2021/07/27 02:42:07;;;;;;;;;;;;;;;18.07;87.44;101062.66;5051886;28;19924;-59
2021/07/27 02:44:34;;;;;;;;;;;;;;;18.05;87.56;101067.28;5054815;28;20371;-58
2021/07/27 02:47:04;;;;;;;;;;;;;;;18.04;87.57;101062.13;5055096;28;19920;-59
2021/07/27 02:49:30;;;;;;;;;;;;;;;18.02;87.91;101070.22;5070319;28;20360;-59
2021/07/27 02:51:57;;;;;;;;;;;;;;;18.01;87.83;101070.38;5053710;28;19920;-59
2021/07/27 02:54:24;;;;;;;;;;;;;;;18.03;87.58;101071.06;5054738;28;20001;-58
2021/07/27 02:56:50;;;;;;;;;;;;;;;17.99;87.54;101073.19;5055025;28;19921;-59
2021/07/27 02:59:17;;;;;;;;;;;;;;;18.05;87.05;101072.63;5054835;28;19956;-59
2021/07/27 03:01:47;;;;;;;;;;;;;;;18.01;87.20;101081.88;5054596;28;20449;-59
2021/07/27 03:04:15;;;;;;;;;;;;;;;17.99;86.89;101081.16;5054641;28;19924;-59
2021/07/27 03:06:45;;;;;;;;;;;;;;;17.88;87.41;101083.94;5069795;28;19947;-59
2021/07/27 03:09:54;;;;;;;;;;;;;;;17.92;87.28;101088.03;5054654;28;20019;-59
2021/07/27 03:12:00;;;;;;;;;;;;;;;17.86;87.42;101089.41;5053666;28;20319;-59
2021/07/27 03:14:27;;;;;;;;;;;;;;;17.91;87.40;101086.31;5069944;28;19975;-59
2021/07/27 03:16:56;;;;;;;;;;;;;;;17.89;87.42;101085.63;5054654;28;20359;-59
2021/07/27 03:19:23;;;;;;;;;;;;;;;17.89;87.88;101090.97;5069746;28;20019;-58
2021/07/27 03:21:50;;;;;;;;;;;;;;;17.93;87.59;101094.19;5051712;28;19925;-59
2021/07/27 03:24:16;;;;;;;;;;;;;;;17.94;87.82;101091.38;5067283;28;19942;-59
2021/07/27 03:26:43;;;;;;;;;;;;;;;18.01;87.42;101089.84;5053450;28;20394;-59
2021/07/27 03:29:10;;;;;;;;;;;;;;;17.94;87.67;101090.56;5066333;28;20350;-59
2021/07/27 03:31:36;;;;;;;;;;;;;;;17.95;87.70;101094.91;5053186;28;20383;-49
2021/07/27 03:34:03;;;;;;;;;;;;;;;17.86;88.05;101089.41;5054317;28;20325;-48
2021/07/27 03:36:30;;;;;;;;;;;;;;;17.86;88.55;101092.06;5054265;28;19925;-51
2021/07/27 03:38:56;;;;;;;;;;;;;;;17.88;88.37;101089.28;5052754;28;19929;-49
2021/07/27 03:41:24;;;;;;;;;;;;;;;17.86;88.81;101091.22;5052729;28;19966;-59
2021/07/27 03:43:51;;;;;;;;;;;;;;;17.81;88.84;101096.16;5053793;28;19928;-59
2021/07/27 03:46:18;;;;;;;;;;;;;;;17.83;88.94;101089.72;5054080;28;20390;-59
2021/07/27 03:48:44;;;;;;;;;;;;;;;17.84;88.86;101088.72;5053860;28;19925;-59
2021/07/27 03:51:14;;;;;;;;;;;;;;;17.89;88.50;101090.97;5069329;28;20319;-58
2021/07/27 03:53:41;;;;;;;;;;;;;;;17.76;89.26;101093.06;5053664;28;19921;-59
2021/07/27 03:56:11;;;;;;;;;;;;;;;17.74;89.27;101090.56;5052455;28;19927;-59
2021/07/27 03:58:38;;;;;;;;;;;;;;;17.77;88.85;101098.25;5069107;28;20359;-59
2021/07/27 04:01:05;;;;;;;;;;;;;;;17.88;88.39;101089.28;5053739;28;20342;-59
2021/07/27 04:03:32;;;;;;;;;;;;;;;17.82;88.33;101089.81;5065046;28;19921;-59
2021/07/27 04:05:59;;;;;;;;;;;;;;;17.71;88.97;101091.66;5049810;28;19974;-59
2021/07/27 04:08:25;;;;;;;;;;;;;;;17.73;88.87;101086.19;5053584;28;19924;-59
2021/07/27 04:10:54;;;;;;;;;;;;;;;17.69;88.74;101098.09;5051813;28;19921;-59
2021/07/27 04:13:21;;;;;;;;;;;;;;;17.58;89.23;101096.44;5050809;28;19921;-58
2021/07/27 04:15:47;;;;;;;;;;;;;;;17.64;88.94;101095.88;5052315;28;20299;-58
2021/07/27 04:18:15;;;;;;;;;;;;;;;17.66;88.92;101098.41;5053265;28;20058;-58
2021/07/27 04:20:42;;;;;;;;;;;;;;;17.56;89.21;101101.03;5053336;28;20379;-59
2021/07/27 04:23:08;;;;;;;;;;;;;;;17.50;89.61;101102.44;5068259;28;19920;-59
2021/07/27 04:25:35;;;;;;;;;;;;;;;17.57;89.28;101097.41;5051897;28;19920;-59
2021/07/27 04:28:02;;;;;;;;;;;;;;;17.56;89.46;101101.03;5068711;28;20265;-59
2021/07/27 04:30:28;;;;;;;;;;;;;;;17.53;89.79;101091.53;5053030;28;19924;-59
2021/07/27 04:32:55;;;;;;;;;;;;;;;17.54;89.66;101098.50;5047922;28;19924;-59
2021/07/27 04:35:22;;;;;;;;;;;;;;;17.55;89.57;101094.06;5050814;28;19990;-59
2021/07/27 04:37:51;;;;;;;;;;;;;;;17.53;89.74;101090.69;5053207;28;19927;-59
2021/07/27 04:40:19;;;;;;;;;;;;;;;17.57;89.35;101092.94;5053007;28;19928;-59
2021/07/27 04:42:45;;;;;;;;;;;;;;;17.60;89.33;101085.66;5068214;28;20298;-59
2021/07/27 04:45:12;;;;;;;;;;;;;;;17.60;89.40;101089.16;5051450;28;20006;-59
2021/07/27 04:47:39;;;;;;;;;;;;;;;17.53;89.53;101091.53;5051393;28;19970;-59
2021/07/27 04:50:06;;;;;;;;;;;;;;;17.56;89.57;101093.91;5050131;28;19924;-45
2021/07/27 04:52:33;;;;;;;;;;;;;;;17.59;89.74;101095.44;5066273;28;19971;-48
2021/07/27 04:55:00;;;;;;;;;;;;;;;17.57;89.46;101098.25;5050073;28;19925;-50
2021/07/27 04:57:26;;;;;;;;;;;;;;;17.65;89.25;101088.72;5049254;28;20295;-46
2021/07/27 04:59:54;;;;;;;;;;;;;;;17.67;89.36;101092.94;5051747;28;20400;-50
2021/07/27 05:02:21;;;;;;;;;;;;;;;17.73;88.73;101083.53;5052586;28;19921;-51
2021/07/27 05:04:48;;;;;;;;;;;;;;;17.69;89.17;101093.63;5052694;28;20375;-50
2021/07/27 05:07:14;;;;;;;;;;;;;;;17.72;89.36;101079.19;5052617;28;19924;-49
2021/07/27 05:09:41;;;;;;;;;;;;;;;17.74;89.62;101085.22;5052594;28;19921;-46
2021/07/27 05:12:08;;;;;;;;;;;;;;;17.84;88.60;101088.72;5052566;28;19920;-49
2021/07/27 05:14:35;;;;;;;;;;;;;;;17.79;88.30;101082.13;5050100;28;19928;-48
2021/07/27 05:17:06;;;;;;;;;;;;;;;17.82;87.61;101088.03;5048519;28;19921;-49
2021/07/27 05:19:33;;;;;;;;;;;;;;;17.87;87.81;101087.59;5052612;28;20427;-45
2021/07/27 05:21:59;;;;;;;;;;;;;;;17.91;87.92;101086.31;5052514;28;20007;-49
2021/07/27 05:24:26;;;;;;;;;;;;;;;17.96;87.59;101086.78;5067871;28;20371;-47
2021/07/27 05:26:52;;;;;;;;;;;;;;;17.98;87.11;101079.47;5049602;28;19970;-49
2021/07/27 05:29:19;;;;;;;;;;;;;;;18.01;86.86;101076.53;5049861;28;19925;-49
2021/07/27 05:31:47;;;;;;;;;;;;;;;18.14;85.31;101076.22;5051366;28;19921;-48
2021/07/27 05:34:13;;;;;;;;;;;;;;;18.01;86.00;101076.53;5053398;28;19999;-51
2021/07/27 05:36:40;;;;;;;;;;;;;;;18.02;85.79;101075.53;5055164;28;19920;-52
2021/07/27 05:39:07;;;;;;;;;;;;;;;18.05;85.53;101072.63;5055059;28;19920;-48
2021/07/27 05:41:33;;;;;;;;;;;;;;;18.03;85.91;101074.56;5055436;28;20380;-51
2021/07/27 05:44:00;;;;;;;;;;;;;;;18.08;85.36;101082.13;5052612;28;19956;-45
2021/07/27 05:46:26;;;;;;;;;;;;;;;18.06;85.19;101071.63;5052983;28;19925;-46
2021/07/27 05:48:53;;;;;;;;;;;;;;;18.13;85.45;101077.19;5071226;28;20366;-50
2021/07/27 05:51:21;;;;;;;;;;;;;;;18.20;85.18;101083.66;5071268;28;20372;-59
2021/07/27 05:53:48;;;;;;;;;;;;;;;18.26;85.23;101076.06;5055700;28;19927;-59
2021/07/27 05:56:14;;;;;;;;;;;;;;;18.37;85.74;101074.06;5055741;28;20322;-59
2021/07/27 05:58:41;;;;;;;;;;;;;;;18.43;83.91;101072.63;5054611;28;19921;-59
2021/07/27 06:01:07;;;;;;;;;;;;;;;18.46;82.96;101074.16;5056023;28;20360;-59
2021/07/27 06:03:34;;;;;;;;;;;;;;;18.48;82.92;101072.22;5070830;28;20007;-57
2021/07/27 06:06:01;;;;;;;;;;;;;;;18.56;83.19;101067.00;5055664;28;20272;-57
2021/07/27 06:08:28;;;;;;;;;;;;;;;18.64;82.82;101072.41;5055583;28;19966;-58
2021/07/27 06:10:54;;;;;;;;;;;;;;;18.68;83.09;101070.28;5055362;28;19970;-58
2021/07/27 06:13:21;;;;;;;;;;;;;;;18.67;82.30;101069.44;5055905;28;20375;-59
2021/07/27 06:15:48;;;;;;;;;;;;;;;18.84;82.80;101069.66;5055770;28;20320;-60
2021/07/27 06:18:14;;;;;;;;;;;;;;;18.86;81.78;101073.00;5055525;28;19921;-45
2021/07/27 06:20:41;;;;;;;;;;;;;;;18.96;82.07;101076.47;5055663;28;20015;-47
2021/07/27 06:23:12;;;;;;;;;;;;;;;19.04;80.73;101071.25;5054948;28;19920;-49
2021/07/27 06:25:39;;;;;;;;;;;;;;;19.16;80.96;101073.72;5054700;28;20363;-52
2021/07/27 06:28:05;;;;;;;;;;;;;;;19.19;81.36;101079.56;5055380;28;19970;-52
2021/07/27 06:30:32;;;;;;;;;;;;;;;19.27;80.31;101080.66;5070594;28;19924;-52
2021/07/27 06:32:59;;;;;;;;;;;;;;;19.23;79.92;101080.94;5055224;28;19920;-50
2021/07/27 06:35:25;;;;;;;;;;;;;;;19.29;80.19;101090.16;5054988;28;19925;-51
2021/07/27 06:37:53;;;;;;;;;;;;;;;19.49;79.63;101084.69;5070408;28;19924;-47
2021/07/27 06:40:20;;;;;;;;;;;;;;;19.58;78.93;101089.13;5055108;28;19920;-46
2021/07/27 06:42:47;;;;;;;;;;;;;;;19.64;79.04;101093.00;5054855;28;19927;-48
2021/07/27 06:45:14;;;;;;;;;;;;;;;19.68;78.16;101095.19;5054177;28;19967;-51
2021/07/27 06:47:41;;;;;;;;;;;;;;;19.77;77.57;101094.28;5051149;28;20375;-51
2021/07/27 06:50:07;;;;;;;;;;;;;;;19.73;77.95;101100.09;5052160;28;20381;-58
2021/07/27 06:52:34;;;;;;;;;;;;;;;19.80;77.71;101097.63;5054373;28;19965;-58
2021/07/27 06:55:01;;;;;;;;;;;;;;;19.82;77.47;101095.69;5053448;28;19925;-58
2021/07/27 06:57:27;;;;;;;;;;;;;;;19.92;76.88;101101.78;5054633;28;19921;-58
2021/07/27 06:59:55;;;;;;;;;;;;;;;20.06;77.40;101103.88;5054533;28;19921;-57
2021/07/27 07:02:24;;;;;;;;;;;;;;;20.05;76.72;101091.50;5054562;28;20429;-58
2021/07/27 07:04:50;;;;;;;;;;;;;;;20.07;75.67;101097.53;5054484;28;19925;-58
2021/07/27 07:07:18;;;;;;;;;;;;;;;20.18;75.66;101095.59;5054430;28;19967;-59
2021/07/27 07:09:45;;;;;;;;;;;;;;;20.21;76.24;101096.13;5054867;28;20415;-59
2021/07/27 07:12:13;;;;;;;;;;;;;;;20.24;75.99;101102.97;5054455;28;19921;-59
2021/07/27 07:14:40;;;;;;;;;;;;;;;20.22;76.05;101105.81;5054370;28;20268;-59
2021/07/27 07:17:09;;;;;;;;;;;;;;;20.26;75.63;101112.50;5053013;28;19921;-59
2021/07/27 07:19:36;;;;;;;;;;;;;;;20.25;76.02;101107.34;5051421;28;20363;-58
2021/07/27 07:22:03;;;;;;;;;;;;;;;20.10;76.48;101115.91;5051887;28;19920;-49
2021/07/27 07:24:29;;;;;;;;;;;;;;;20.23;76.35;101120.00;5054142;28;20283;-51
2021/07/27 07:26:57;;;;;;;;;;;;;;;20.19;76.42;101123.97;5052328;28;19979;-51
2021/07/27 07:29:23;;;;;;;;;;;;;;;20.05;76.75;101123.53;5051415;28;19966;-51
2021/07/27 07:31:50;;;;;;;;;;;;;;;20.17;76.86;101121.47;5068811;28;19921;-49
2021/07/27 07:34:17;;;;;;;;;;;;;;;19.99;77.00;101121.50;5052958;28;19986;-58
2021/07/27 07:36:43;;;;;;;;;;;;;;;20.01;76.92;101116.81;5069329;28;19920;-49
2021/07/27 07:39:10;;;;;;;;;;;;;;;20.08;76.69;101114.38;5053060;28;19967;-58
2021/07/27 07:41:37;;;;;;;;;;;;;;;20.20;76.85;101109.63;5053940;28;19928;-59
2021/07/27 07:44:03;;;;;;;;;;;;;;;20.37;75.83;101114.09;5053599;28;19928;-58
2021/07/27 07:46:30;;;;;;;;;;;;;;;20.41;75.98;101115.44;5069102;28;19962;-58
2021/07/27 07:48:56;;;;;;;;;;;;;;;20.52;75.95;101117.00;5053080;28;20019;-58
2021/07/27 07:51:24;;;;;;;;;;;;;;;20.58;76.08;101119.03;5051124;28;19921;-58
2021/07/27 07:53:51;;;;;;;;;;;;;;;20.62;75.61;101111.53;5066411;28;19974;-59
2021/07/27 07:56:17;;;;;;;;;;;;;;;20.64;74.59;101106.88;5053524;28;20372;-58
2021/07/27 07:58:44;;;;;;;;;;;;;;;20.80;74.67;101108.81;5053347;28;19920;-58
2021/07/27 08:01:11;;;;;;;;;;;;;;;20.93;74.54;101111.03;5052164;28;19920;-58
2021/07/27 08:03:38;;;;;;;;;;;;;;;20.91;73.90;101105.88;5053534;28;19982;-58
2021/07/27 08:06:06;;;;;;;;;;;;;;;20.97;73.93;101112.41;5052615;28;20315;-49
2021/07/27 08:08:35;;;;;;;;;;;;;;;20.90;73.79;101117.56;5050867;28;20384;-47
2021/07/27 08:11:06;;;;;;;;;;;;;;;20.92;74.01;101114.72;5051943;28;19921;-50
2021/07/27 08:13:32;;;;;;;;;;;;;;;20.90;72.98;101114.03;5068646;28;19928;-48
2021/07/27 08:15:59;;;;;;;;;;;;;;;21.05;73.25;101111.56;5068493;28;19920;-51
2021/07/27 08:18:26;;;;;;;;;;;;;;;21.02;73.11;101114.56;5052002;28;20012;-49
2021/07/27 08:20:52;;;;;;;;;;;;;;;21.01;73.63;101111.06;5051868;28;19921;-51
2021/07/27 08:23:19;;;;;;;;;;;;;;;20.84;74.24;101107.50;5068548;28;19920;-48
2021/07/27 08:25:45;;;;;;;;;;;;;;;20.83;74.02;101103.13;5051942;28;19928;-49
2021/07/27 08:28:12;;;;;;;;;;;;;;;20.89;73.10;101104.34;5053191;28;19948;-51
2021/07/27 08:30:39;;;;;;;;;;;;;;;20.91;73.78;101103.19;5053079;28;19921;-50
2021/07/27 08:33:05;;;;;;;;;;;;;;;20.90;74.46;101103.31;5052291;28;19975;-50
2021/07/27 08:35:32;;;;;;;;;;;;;;;21.08;74.53;101104.06;5048863;28;19927;-51
2021/07/27 08:37:59;;;;;;;;;;;;;;;21.25;72.34;101109.47;5051484;28;19936;-47
2021/07/27 08:40:25;;;;;;;;;;;;;;;21.29;73.20;101105.44;5052945;28;20011;-52
2021/07/27 08:42:52;;;;;;;;;;;;;;;21.32;73.08;101107.78;5065541;28;19920;-49
2021/07/27 08:45:19;;;;;;;;;;;;;;;21.26;72.87;101105.78;5050596;28;19927;-48
2021/07/27 08:47:47;;;;;;;;;;;;;;;21.34;72.41;101102.31;5052861;28;20378;-51
2021/07/27 08:50:14;;;;;;;;;;;;;;;21.43;72.44;101098.63;5051775;28;20291;-47
2021/07/27 08:52:41;;;;;;;;;;;;;;;21.39;72.42;101103.47;5050288;28;19931;-48
2021/07/27 08:55:08;;;;;;;;;;;;;;;21.67;71.69;101092.47;5049400;28;19925;-49
2021/07/27 08:57:35;;;;;;;;;;;;;;;21.52;72.48;101099.47;5051964;28;19920;-59
2021/07/27 09:00:02;;;;;;;;;;;;;;;21.73;72.14;101099.84;5051558;28;20007;-59
2021/07/27 09:02:29;;;;;;;;;;;;;;;21.89;70.18;101095.50;5050957;28;19970;-59
2021/07/27 09:05:08;;;;;;;;;;;;;;;21.85;71.21;101102.19;5052141;28;19927;-59
2021/07/27 09:07:35;;;;;;;;;;;;;;;21.94;70.04;101109.22;5064920;28;19927;-59
2021/07/27 09:10:15;;;;;;;;;;;;;;;22.03;70.57;101100.19;5064081;28;20388;-59
2021/07/27 09:13:01;;;;;;;;;;;;;;;22.22;71.26;101104.34;5067571;28;20015;-59
2021/07/27 09:15:29;;;;;;;;;;;;;;;22.44;68.94;101105.47;5067462;28;19921;-59
2021/07/27 09:17:57;;;;;;;;;;;;;;;22.52;69.03;101093.88;5067283;28;19924;-59
2021/07/27 09:20:43;;;;;;;;;;;;;;;22.81;68.46;101092.44;5052279;28;19927;-59
2021/07/27 09:23:14;;;;;;;;;;;;;;;23.26;68.60;101090.03;5044334;28;19921;-59
2021/07/27 09:25:42;;;;;;;;;;;;;;;23.57;65.14;101090.00;5052099;28;19921;-59
2021/07/27 09:28:09;;;;;;;;;;;;;;;23.84;64.64;101084.25;5052226;28;19960;-59
2021/07/27 09:30:37;;;;;;;;;;;;;;;24.14;65.79;101091.34;5052168;28;19921;-59
2021/07/27 09:33:04;;;;;;;;;;;;;;;24.44;63.24;101085.97;5052059;28;19921;-59
2021/07/27 09:35:30;;;;;;;;;;;;;;;24.75;61.61;101081.47;5050121;28;19966;-62
2021/07/27 09:38:07;;;;;;;;;;;;;;;24.57;59.50;101074.59;5047317;28;20302;-60
2021/07/27 09:40:35;;;;;;;;;;;;;;;24.28;62.39;101078.97;5066016;28;19921;-59
2021/07/27 09:43:02;;;;;;;;;;;;;;;24.29;60.95;101080.59;5067577;28;19920;-59
2021/07/27 09:45:28;;;;;;;;;;;;;;;24.40;58.83;101078.50;5049658;28;19971;-59
2021/07/27 09:47:55;;;;;;;;;;;;;;;24.58;58.15;101084.31;5047266;28;19924;-59
2021/07/27 09:50:23;;;;;;;;;;;;;;;24.76;57.94;101088.47;5067613;28;19966;-59
2021/07/27 09:52:50;;;;;;;;;;;;;;;25.10;58.04;101092.41;5067629;28;19937;-59
2021/07/27 09:55:22;;;;;;;;;;;;;;;25.17;56.32;101084.41;5065768;28;19932;-59
2021/07/27 09:57:48;;;;;;;;;;;;;;;25.24;56.17;101086.16;5048549;28;19920;-59
2021/07/27 10:00:16;;;;;;;;;;;;;;;25.35;55.83;101084.84;5051862;28;19924;-59
2021/07/27 10:02:43;;;;;;;;;;;;;;;25.41;55.98;101085.94;5067233;28;19967;-59
2021/07/27 10:05:10;;;;;;;;;;;;;;;25.45;56.03;101087.22;5051604;28;19971;-51
2021/07/27 10:07:50;;;;;;;;;;;;;;;25.32;56.42;101093.28;5064625;28;19921;-51
2021/07/27 10:10:17;;;;;;;;;;;;;;;25.57;55.99;101090.22;5049602;28;20345;-49
2021/07/27 10:12:44;;;;;;;;;;;;;;;25.77;56.09;101088.53;5051719;28;19924;-47
2021/07/27 10:15:15;;;;;;;;;;;;;;;25.50;56.60;101100.06;5052271;28;20054;-58
2021/07/27 10:17:51;;;;;;;;;;;;;;;25.76;55.77;101097.63;5052161;28;19921;-58
2021/07/27 10:20:24;;;;;;;;;;;;;;;25.73;55.07;101095.34;5052906;28;19920;-58
2021/07/27 10:22:51;;;;;;;;;;;;;;;25.83;54.20;101099.56;5054374;28;19921;-58
2021/07/27 10:25:18;;;;;;;;;;;;;;;25.88;53.56;101097.09;5055544;28;20314;-58
2021/07/27 10:27:48;;;;;;;;;;;;;;;25.48;53.07;101093.06;5055330;28;19932;-58
2021/07/27 10:30:15;;;;;;;;;;;;;;;25.55;53.46;101086.88;5070695;28;19937;-58
2021/07/27 10:32:52;;;;;;;;;;;;;;;25.82;53.24;101087.94;5070278;28;20399;-58
2021/07/27 10:35:29;;;;;;;;;;;;;;;25.62;52.37;101087.78;5070551;28;19921;-58
2021/07/27 10:38:14;;;;;;;;;;;;;;;25.60;52.58;101085.28;5070018;28;19936;-58
2021/07/27 10:40:42;;;;;;;;;;;;;;;25.43;52.57;101094.66;5069391;28;19925;-58
2021/07/27 10:43:09;;;;;;;;;;;;;;;25.54;53.22;101088.75;5067187;28;20355;-58
2021/07/27 10:45:36;;;;;;;;;;;;;;;25.64;53.36;101089.25;5052878;28;19921;-58
2021/07/27 10:48:03;;;;;;;;;;;;;;;25.48;53.24;101090.34;5070148;28;20011;-58
2021/07/27 10:50:30;;;;;;;;;;;;;;;25.57;53.91;101098.31;5069925;28;19951;-58
2021/07/27 10:53:00;;;;;;;;;;;;;;;25.22;52.88;101084.66;5052020;28;19990;-57
2021/07/27 10:55:27;;;;;;;;;;;;;;;25.27;54.40;101093.84;5053398;28;19936;-58
2021/07/27 10:57:55;;;;;;;;;;;;;;;25.36;54.14;101091.91;5054761;28;20394;-57
2021/07/27 11:00:32;;;;;;;;;;;;;;;25.10;53.52;101085.19;5054834;28;19951;-49
2021/07/27 11:02:59;;;;;;;;;;;;;;;25.10;54.48;101090.56;5054725;28;19925;-51
2021/07/27 11:05:26;;;;;;;;;;;;;;;24.97;54.87;101096.59;5053746;28;19924;-50
2021/07/27 11:07:53;;;;;;;;;;;;;;;25.05;54.31;101092.16;5050096;28;19921;-52
2021/07/27 11:10:21;;;;;;;;;;;;;;;25.11;53.69;101100.31;5052179;28;20020;-51
2021/07/27 11:12:47;;;;;;;;;;;;;;;24.97;55.17;101101.16;5069864;28;19982;-51
2021/07/27 11:15:18;;;;;;;;;;;;;;;24.89;55.28;101102.09;5053299;28;19920;-49
2021/07/27 11:17:47;;;;;;;;;;;;;;;24.92;55.45;101103.59;5054546;28;19921;-52
2021/07/27 11:20:19;;;;;;;;;;;;;;;24.82;55.49;101095.00;5070007;28;19920;-50
2021/07/27 11:22:47;;;;;;;;;;;;;;;25.05;55.49;101095.69;5054374;28;19928;-51
2021/07/27 11:25:15;;;;;;;;;;;;;;;25.08;55.81;101097.16;5069651;28;19967;-58
2021/07/27 11:27:42;;;;;;;;;;;;;;;25.03;55.37;101086.13;5053101;28;19921;-58
2021/07/27 11:30:09;;;;;;;;;;;;;;;25.37;56.61;101090.84;5069541;28;20322;-58
2021/07/27 11:32:46;;;;;;;;;;;;;;;25.62;55.20;101090.47;5068742;28;19950;-58
2021/07/27 11:35:26;;;;;;;;;;;;;;;25.62;55.00;101088.63;5054075;28;19927;-58
2021/07/27 11:38:00;;;;;;;;;;;;;;;25.37;55.39;101092.72;5054206;28;19921;-58
2021/07/27 11:40:32;;;;;;;;;;;;;;;25.37;55.16;101090.84;5051601;28;19978;-58
2021/07/27 11:43:18;;;;;;;;;;;;;;;25.38;54.82;101095.22;5050309;28;19932;-59
2021/07/27 11:45:45;;;;;;;;;;;;;;;25.13;53.95;101100.94;5053890;28;19928;-59
2021/07/27 11:48:12;;;;;;;;;;;;;;;24.75;54.44;101106.50;5069006;28;19971;-58
2021/07/27 11:50:41;;;;;;;;;;;;;;;23.45;60.71;101140.56;5068866;28;19925;-57
2021/07/27 11:53:08;;;;;;;;;;;;;;;22.35;61.12;101141.34;5053780;28;19925;-57
2021/07/27 11:55:39;;;;;;;;;;;;;;;22.02;63.83;101162.75;5053652;28;19921;-58
2021/07/27 11:58:07;;;;;;;;;;;;;;;21.35;64.35;101165.47;5053737;28;19921;-56
2021/07/27 12:00:35;;;;;;;;;;;;;;;20.91;66.51;101177.19;5053524;28;20363;-58
2021/07/27 12:03:05;;;;;;;;;;;;;;;20.81;69.53;101176.47;5053586;28;20387;-53
2021/07/27 12:05:32;;;;;;;;;;;;;;;20.79;69.13;101173.94;5053399;28;20338;-55
2021/07/27 12:08:01;;;;;;;;;;;;;;;20.60;69.46;101162.47;5052720;28;20295;-48
2021/07/27 12:10:28;;;;;;;;;;;;;;;20.62;69.86;101164.16;5053386;28;20501;-48
2021/07/27 12:12:54;;;;;;;;;;;;;;;20.58;70.91;101155.59;5052863;28;19979;-57
2021/07/27 12:15:22;;;;;;;;;;;;;;;20.40;71.03;101153.81;5052809;28;19921;-57
2021/07/27 12:17:49;;;;;;;;;;;;;;;20.24;69.67;101154.53;5052301;28;19921;-46
2021/07/27 12:20:16;;;;;;;;;;;;;;;20.37;70.90;101145.28;5051573;28;19920;-49
2021/07/27 12:22:42;;;;;;;;;;;;;;;20.50;69.33;101142.19;5052523;28;20314;-49
2021/07/27 12:25:09;;;;;;;;;;;;;;;20.50;70.27;101147.53;5052719;28;20318;-48
2021/07/27 12:27:36;;;;;;;;;;;;;;;20.47;70.24;101142.53;5049171;28;19982;-49
2021/07/27 12:30:04;;;;;;;;;;;;;;;20.71;70.52;101145.34;5049083;28;19921;-48
2021/07/27 12:32:30;;;;;;;;;;;;;;;20.74;72.20;101142.34;5043479;28;19974;-53
2021/07/27 12:35:07;;;;;;;;;;;;;;;20.69;69.42;101130.47;5052477;28;20279;-58
2021/07/27 12:37:35;;;;;;;;;;;;;;;20.88;69.36;101122.22;5051147;28;19924;-57
2021/07/27 12:40:05;;;;;;;;;;;;;;;20.65;70.96;101119.22;5048446;28;19921;-58
2021/07/27 12:42:32;;;;;;;;;;;;;;;20.73;72.80;101115.81;5052013;28;19928;-58
2021/07/27 12:44:58;;;;;;;;;;;;;;;20.75;73.02;101114.66;5052129;28;19928;-52
2021/07/27 12:47:25;;;;;;;;;;;;;;;20.92;70.82;101106.69;5051206;28;20318;-57
2021/07/27 12:49:56;;;;;;;;;;;;;;;20.86;70.73;101099.31;5052200;28;20367;-58
2021/07/27 12:52:23;;;;;;;;;;;;;;;21.24;71.76;101105.97;5049710;28;19921;-58
2021/07/27 12:54:50;;;;;;;;;;;;;;;21.61;70.93;101088.66;5048802;28;19925;-58
2021/07/27 12:57:17;;;;;;;;;;;;;;;21.81;70.00;101093.66;5049983;28;20394;-58
2021/07/27 12:59:45;;;;;;;;;;;;;;;22.20;68.12;101084.91;5052164;28;19921;-46
2021/07/27 13:02:12;;;;;;;;;;;;;;;22.76;67.27;101084.91;5049678;28;19929;-48